This is the latest recevied weather packets stored in our database for station/object DB0NU-15. If no packets are shown the sender has not sent any weather packets the latest 10 day(s).
| Time | Temp. | Humidity | Pressure | Rain* | Wind** | Luminosity | Snow |
|---|---|---|---|---|---|---|---|
| 1777605061 | 6.67° C | 63% | 1029.3 hPa | 0 mm | - | - | - |
| 1777604457 | 7.22° C | 61% | 1029.3 hPa | 0 mm | - | - | - |
| 1777603854 | 7.78° C | 58% | 1029.4 hPa | 0 mm | - | - | - |
| 1777603251 | 7.78° C | 59% | 1029.4 hPa | 0 mm | - | - | - |
| 1777602647 | 7.78° C | 58% | 1029.4 hPa | 0 mm | - | - | - |
| 1777602044 | 8.33° C | 56% | 1029.4 hPa | 0 mm | - | - | - |
| 1777601440 | 8.89° C | 53% | 1029.4 hPa | 0 mm | - | - | - |
| 1777600837 | 8.89° C | 54% | 1029.3 hPa | 0 mm | - | - | - |
| 1777600234 | 8.33° C | 55% | 1029.4 hPa | 0 mm | - | - | - |
| 1777599630 | 8.33° C | 55% | 1029.4 hPa | 0 mm | - | - | - |
| 1777599027 | 8.33° C | 55% | 1029.5 hPa | 0 mm | - | - | - |
| 1777598424 | 8.89° C | 54% | 1029.4 hPa | 0 mm | - | - | - |
| 1777597820 | 8.89° C | 54% | 1029.5 hPa | 0 mm | - | - | - |
| 1777597217 | 8.89° C | 54% | 1029.5 hPa | 0 mm | - | - | - |
| 1777596674 | 8.33° C | 56% | 1029.5 hPa | 0 mm | - | - | - |
| 1777595466 | 8.33° C | 57% | 1029.6 hPa | 0 mm | - | - | - |
| 1777594863 | 8.33° C | 57% | 1029.6 hPa | 0 mm | - | - | - |
| 1777594259 | 8.89° C | 57% | 1029.6 hPa | 0 mm | - | - | - |
| 1777593656 | 8.89° C | 57% | 1029.6 hPa | 0 mm | - | - | - |
| 1777591845 | 9.44° C | 55% | 1029.6 hPa | 0 mm | - | - | - |
| 1777591242 | 9.44° C | 55% | 1029.5 hPa | 0 mm | - | - | - |
| 1777590638 | 9.44° C | 56% | 1029.4 hPa | 0 mm | - | - | - |
| 1777589432 | 9.44° C | 57% | 1029.5 hPa | 0 mm | - | - | - |
| 1777588828 | 8.89° C | 57% | 1029.5 hPa | 0 mm | - | - | - |
| 1777588225 | 8.89° C | 57% | 1029.5 hPa | 0 mm | - | - | - |
* Rain latest hour (hover to see other rain measurements)
** Current wind speed in m/s (hover to see current wind gust speed)